Time;durP1;ratioP1;P1;durP2;ratioP2;P2;SDS_P1;SDS_P2;PMS_P1;PMS_P2;Temp;Humidity;BMP_temperature;BMP_pressure;BME280_temperature;BME280_humidity;BME280_pressure;Samples;Min_cycle;Max_cycle;Signal;HPM_P1;HPM_P2
2023/12/10 00:00:48;;;;;;;40.63;30.98;;;;;;;3.76;65.58;94534.91;4175623;28;20085;-69
2023/12/10 00:02:50;;;;;;;36.42;31.27;;;;;;;3.77;65.21;94526.22;4176468;28;20401;-69
2023/12/10 00:04:51;;;;;;;38.90;31.85;;;;;;;3.80;65.17;94531.94;4169222;28;20129;-70
2023/12/10 00:06:53;;;;;;;34.53;29.25;;;;;;;3.74;65.00;94532.44;4171421;28;20416;-68
2023/12/10 00:08:56;;;;;;;35.13;29.40;;;;;;;3.75;65.42;94533.28;4176494;28;20053;-69
2023/12/10 00:10:58;;;;;;;34.92;29.77;;;;;;;3.74;64.77;94531.63;4177188;28;20056;-68
2023/12/10 00:13:00;;;;;;;36.50;29.10;;;;;;;3.72;65.23;94536.09;4183929;28;20044;-69
2023/12/10 00:15:03;;;;;;;36.20;29.90;;;;;;;3.63;65.03;94541.06;4167675;28;20451;-70
2023/12/10 00:17:05;;;;;;;37.65;30.17;;;;;;;3.69;65.42;94534.56;4175764;28;20048;-68
2023/12/10 00:19:07;;;;;;;35.88;30.08;;;;;;;3.68;65.42;94528.59;4174192;28;20095;-68
2023/12/10 00:21:13;;;;;;;36.85;30.15;;;;;;;3.62;65.18;94536.84;4162029;28;20081;-70
2023/12/10 00:23:15;;;;;;;37.13;30.73;;;;;;;3.64;65.94;94539.31;4162581;28;20053;-68
2023/12/10 00:25:17;;;;;;;37.33;31.10;;;;;;;3.65;65.66;94536.56;4175025;28;20230;-67
2023/12/10 00:27:19;;;;;;;39.60;29.70;;;;;;;3.66;65.39;94530.47;4173993;28;20535;-68
2023/12/10 00:29:21;;;;;;;37.25;31.27;;;;;;;3.59;65.35;94544.84;4168213;28;20065;-68
2023/12/10 00:31:22;;;;;;;39.85;31.08;;;;;;;3.55;65.72;94547.78;4170431;28;20057;-67
2023/12/10 00:33:24;;;;;;;38.30;31.00;;;;;;;3.55;66.03;94535.69;4174447;28;20411;-68
2023/12/10 00:35:26;;;;;;;39.58;32.65;;;;;;;3.56;65.56;94539.09;4162961;28;20119;-69
2023/12/10 00:37:28;;;;;;;39.35;31.05;;;;;;;3.59;65.44;94534.50;4162040;28;20556;-68
2023/12/10 00:39:30;;;;;;;39.22;30.90;;;;;;;3.61;65.60;94522.22;4173817;28;20463;-67
2023/12/10 00:41:32;;;;;;;39.97;31.60;;;;;;;3.64;65.33;94522.00;4162839;28;20401;-68
2023/12/10 00:43:34;;;;;;;38.70;30.52;;;;;;;3.60;65.50;94514.59;4175815;28;20104;-68
2023/12/10 00:45:36;;;;;;;44.78;32.20;;;;;;;3.62;65.84;94518.69;4166894;28;20045;-67
2023/12/10 00:47:38;;;;;;;38.70;31.67;;;;;;;3.67;65.59;94518.34;4167476;28;20076;-68
2023/12/10 00:49:40;;;;;;;40.45;31.73;;;;;;;3.58;65.55;94517.28;4165574;28;20397;-68
2023/12/10 00:51:42;;;;;;;39.95;31.85;;;;;;;3.58;65.24;94529.44;4176040;28;20107;-70
2023/12/10 00:53:44;;;;;;;37.85;31.65;;;;;;;3.57;65.96;94525.19;4166931;28;20077;-68
2023/12/10 00:55:46;;;;;;;45.08;32.83;;;;;;;3.57;66.20;94533.78;4175433;28;20044;-66
2023/12/10 00:57:49;;;;;;;35.75;30.13;;;;;;;3.57;66.06;94530.34;4176503;28;20108;-69
2023/12/10 00:59:50;;;;;;;40.03;30.77;;;;;;;3.58;66.00;94535.44;4176072;28;20041;-68
2023/12/10 01:01:52;;;;;;;41.08;32.05;;;;;;;3.58;66.11;94527.66;4165439;28;20481;-68
2023/12/10 01:03:54;;;;;;;38.67;30.58;;;;;;;3.53;65.54;94524.63;4165555;28;20052;-68
2023/12/10 01:05:56;;;;;;;41.08;30.83;;;;;;;3.47;65.33;94525.09;4172564;28;20111;-67
2023/12/10 01:07:58;;;;;;;39.50;31.42;;;;;;;3.43;65.85;94515.91;4175201;28;20045;-67
2023/12/10 01:10:01;;;;;;;39.08;30.38;;;;;;;3.37;66.24;94511.22;4174491;28;20072;-68
2023/12/10 01:12:03;;;;;;;41.85;32.88;;;;;;;3.26;66.27;94512.88;4176173;28;20041;-69
2023/12/10 01:14:05;;;;;;;41.75;32.78;;;;;;;3.28;66.54;94513.56;4186860;28;20102;-68
2023/12/10 01:16:07;;;;;;;39.15;31.55;;;;;;;3.38;66.55;94513.69;4177601;28;20456;-68
2023/12/10 01:18:10;;;;;;;43.78;32.83;;;;;;;3.42;66.21;94511.66;4174365;28;20053;-67
2023/12/10 01:20:12;;;;;;;36.95;30.10;;;;;;;3.52;66.56;94499.66;4172893;28;20064;-69
2023/12/10 01:22:14;;;;;;;38.05;31.52;;;;;;;3.57;66.01;94496.69;4180821;28;20123;-69
2023/12/10 01:24:16;;;;;;;39.40;30.05;;;;;;;3.70;65.43;94499.97;4178625;28;20084;-69
2023/12/10 01:26:19;;;;;;;37.08;29.83;;;;;;;3.75;65.14;94500.41;4177239;28;20392;-69
2023/12/10 01:28:20;;;;;;;36.28;29.25;;;;;;;3.77;65.01;94489.94;4172940;28;20456;-69
2023/12/10 01:30:25;;;;;;;39.92;31.00;;;;;;;3.73;64.90;94493.72;4180065;28;20075;-67
2023/12/10 01:32:27;;;;;;;36.72;29.30;;;;;;;3.66;65.13;94496.78;4178178;28;20103;-68
2023/12/10 01:34:30;;;;;;;43.67;30.30;;;;;;;3.59;65.74;94477.50;4165354;28;20159;-70
2023/12/10 01:36:32;;;;;;;42.22;30.83;;;;;;;3.55;65.76;94481.28;4170569;28;20088;-67
2023/12/10 01:38:34;;;;;;;38.88;31.08;;;;;;;3.49;65.74;94485.19;4175094;28;20126;-68
2023/12/10 01:40:36;;;;;;;38.53;31.27;;;;;;;3.54;66.41;94482.22;4179665;28;20126;-68
2023/12/10 01:42:38;;;;;;;41.03;29.65;;;;;;;3.56;65.81;94466.56;4177607;28;20179;-69
2023/12/10 01:44:40;;;;;;;38.70;30.17;;;;;;;3.64;65.80;94477.13;4177474;28;20075;-69
2023/12/10 01:46:43;;;;;;;40.45;31.33;;;;;;;3.69;65.75;94472.41;4176862;28;20079;-67
2023/12/10 01:48:46;;;;;;;37.00;30.15;;;;;;;3.70;65.02;94487.03;4179451;28;20374;-67
2023/12/10 01:50:48;;;;;;;39.05;29.52;;;;;;;3.73;65.31;94481.56;4194657;28;20427;-67
2023/12/10 01:52:49;;;;;;;37.05;30.70;;;;;;;3.74;64.96;94485.81;4177722;28;20045;-66
2023/12/10 01:54:52;;;;;;;37.20;29.50;;;;;;;3.76;65.16;94494.28;4176240;28;20046;-69
2023/12/10 01:56:55;;;;;;;35.35;29.75;;;;;;;3.76;65.43;94493.47;4172925;28;20365;-69
2023/12/10 01:59:07;;;;;;;36.72;30.23;;;;;;;3.75;65.11;94494.41;4178526;28;20550;-68
2023/12/10 02:01:09;;;;;;;39.13;30.30;;;;;;;3.71;65.48;94495.59;4169518;28;20172;-68
2023/12/10 02:03:11;;;;;;;41.30;31.65;;;;;;;3.67;65.65;94488.06;4179849;28;20476;-68
2023/12/10 02:05:13;;;;;;;38.20;30.02;;;;;;;3.72;65.57;94490.28;4169063;28;20407;-68
2023/12/10 02:07:16;;;;;;;39.13;31.35;;;;;;;3.80;65.53;94489.69;4178233;28;20076;-69
2023/12/10 02:09:18;;;;;;;40.20;31.08;;;;;;;3.79;64.94;94482.88;4178756;28;20056;-67
2023/12/10 02:11:20;;;;;;;38.35;30.40;;;;;;;3.73;64.61;94480.75;4176651;28;20480;-68
2023/12/10 02:13:23;;;;;;;37.28;30.98;;;;;;;3.69;65.36;94488.75;4174479;28;20049;-68
2023/12/10 02:15:27;;;;;;;39.03;30.38;;;;;;;3.76;65.07;94490.88;4178870;28;20048;-70
2023/12/10 02:17:29;;;;;;;38.10;29.15;;;;;;;3.75;65.58;94469.31;4177496;28;20076;-68
2023/12/10 02:19:32;;;;;;;37.15;29.33;;;;;;;3.77;65.50;94479.56;4177856;28;20068;-68
2023/12/10 02:21:34;;;;;;;36.20;29.83;;;;;;;3.76;65.25;94467.56;4168782;28;20053;-69
2023/12/10 02:23:59;;;;;;;41.67;29.88;;;;;;;3.77;64.73;94482.97;4191876;28;20395;-69
2023/12/10 02:26:01;;;;;;;38.28;29.42;;;;;;;3.70;64.99;94481.84;4170211;28;20077;-66
2023/12/10 02:28:05;;;;;;;36.92;28.45;;;;;;;3.71;65.42;94482.66;4191396;28;20080;-67
2023/12/10 02:30:09;;;;;;;36.05;29.83;;;;;;;3.69;65.26;94477.59;4177211;28;20054;-66
2023/12/10 02:32:11;;;;;;;37.45;31.00;;;;;;;3.71;65.57;94475.69;4174288;28;20108;-70
2023/12/10 02:34:13;;;;;;;37.50;30.27;;;;;;;3.72;65.18;94463.56;4178071;28;20115;-70
2023/12/10 02:36:15;;;;;;;38.92;31.25;;;;;;;3.68;65.59;94456.03;4175687;28;20052;-68
2023/12/10 02:38:20;;;;;;;36.80;28.80;;;;;;;3.72;65.09;94463.56;4174808;28;20126;-68
2023/12/10 02:40:23;;;;;;;37.03;30.13;;;;;;;3.70;65.36;94458.53;4173121;28;20053;-69
2023/12/10 02:42:25;;;;;;;41.08;32.38;;;;;;;3.67;65.54;94471.69;4177880;28;20053;-68
2023/12/10 02:44:28;;;;;;;37.75;29.30;;;;;;;3.66;66.06;94468.28;4178741;28;20114;-68
2023/12/10 02:46:30;;;;;;;37.25;30.00;;;;;;;3.71;65.47;94456.75;4178104;28;20074;-68
2023/12/10 02:48:32;;;;;;;41.45;30.42;;;;;;;3.74;65.02;94453.91;4177121;28;20076;-70
2023/12/10 02:50:34;;;;;;;42.00;31.87;;;;;;;3.72;64.89;94458.38;4178403;28;20063;-67
2023/12/10 02:52:37;;;;;;;40.95;31.23;;;;;;;3.62;65.36;94456.53;4173429;28;20075;-68
2023/12/10 02:54:38;;;;;;;44.97;31.70;;;;;;;3.67;65.96;94462.16;4171328;28;20369;-67
2023/12/10 02:56:40;;;;;;;42.20;32.13;;;;;;;3.64;65.24;94465.00;4178841;28;20052;-68
2023/12/10 02:58:42;;;;;;;38.97;30.85;;;;;;;3.66;65.16;94473.47;4171131;28;20115;-68
2023/12/10 03:00:44;;;;;;;43.33;30.38;;;;;;;3.52;65.52;94465.97;4169781;28;20060;-68
2023/12/10 03:02:46;;;;;;;38.75;30.77;;;;;;;3.55;65.94;94468.34;4171438;28;20138;-69
2023/12/10 03:04:48;;;;;;;37.70;30.10;;;;;;;3.57;66.18;94458.69;4167477;28;20121;-68
2023/12/10 03:06:50;;;;;;;38.75;30.35;;;;;;;3.62;65.80;94455.72;4170539;28;20055;-70
2023/12/10 03:08:53;;;;;;;39.33;30.02;;;;;;;3.58;65.89;94449.13;4178353;28;20041;-68
2023/12/10 03:10:55;;;;;;;36.53;29.58;;;;;;;3.59;65.12;94449.03;4165927;28;20524;-69
2023/12/10 03:12:56;;;;;;;37.88;29.70;;;;;;;3.57;65.57;94447.47;4162906;28;20122;-69
2023/12/10 03:14:59;;;;;;;40.65;30.13;;;;;;;3.61;65.45;94444.50;4173384;28;20049;-68
2023/12/10 03:17:00;;;;;;;40.88;29.55;;;;;;;3.58;65.59;94439.59;4166838;28;20052;-68
2023/12/10 03:19:02;;;;;;;38.13;29.58;;;;;;;3.64;65.74;94439.09;4177384;28;20049;-69
2023/12/10 03:21:05;;;;;;;37.80;29.50;;;;;;;3.65;65.84;94445.09;4175652;28;20071;-66
2023/12/10 03:23:06;;;;;;;38.20;29.92;;;;;;;3.56;65.68;94438.06;4167786;28;20397;-66
2023/12/10 03:25:09;;;;;;;38.10;29.45;;;;;;;3.46;65.99;94446.59;4167453;28;20052;-67
2023/12/10 03:27:11;;;;;;;41.03;31.35;;;;;;;3.36;66.39;94455.19;4170613;28;20049;-69
2023/12/10 03:29:12;;;;;;;38.17;29.33;;;;;;;3.31;66.91;94449.53;4174582;28;20512;-68
2023/12/10 03:31:14;;;;;;;43.92;29.80;;;;;;;3.38;67.08;94451.53;4167170;28;20053;-68
2023/12/10 03:33:16;;;;;;;41.97;30.42;;;;;;;3.34;66.37;94451.91;4170838;28;20192;-68
2023/12/10 03:35:18;;;;;;;39.55;30.75;;;;;;;3.36;66.76;94457.78;4175466;28;20056;-69
2023/12/10 03:37:21;;;;;;;38.33;30.42;;;;;;;3.33;66.62;94460.59;4174954;28;20052;-69
2023/12/10 03:39:23;;;;;;;35.92;29.55;;;;;;;3.32;66.71;94459.78;4160028;28;20045;-67
2023/12/10 03:41:25;;;;;;;38.95;29.58;;;;;;;3.36;66.94;94461.19;4175891;28;20144;-68
2023/12/10 03:43:27;;;;;;;38.38;28.70;;;;;;;3.38;66.80;94445.56;4175506;28;20073;-68
2023/12/10 03:45:29;;;;;;;38.30;30.17;;;;;;;3.36;66.72;94447.44;4175407;28;20128;-66
2023/12/10 03:47:31;;;;;;;39.53;30.25;;;;;;;3.35;66.37;94443.19;4178032;28;20098;-68
2023/12/10 03:49:32;;;;;;;39.08;29.25;;;;;;;3.45;66.54;94454.47;4176815;28;20045;-67
2023/12/10 03:51:35;;;;;;;36.05;28.80;;;;;;;3.51;66.49;94461.75;4173315;28;20041;-66
2023/12/10 03:53:37;;;;;;;35.70;28.60;;;;;;;3.55;65.91;94455.38;4177842;28;20041;-68
2023/12/10 03:55:38;;;;;;;36.13;28.42;;;;;;;3.54;65.74;94445.13;4177964;28;20060;-67
2023/12/10 03:57:40;;;;;;;35.28;27.25;;;;;;;3.41;65.87;94459.06;4164456;28;20083;-69
2023/12/10 03:59:42;;;;;;;36.40;26.58;;;;;;;3.34;65.72;94454.50;4166518;28;20091;-69
2023/12/10 04:01:44;;;;;;;35.25;26.13;;;;;;;3.36;66.00;94458.59;4172236;28;20072;-68
2023/12/10 04:03:46;;;;;;;35.70;27.17;;;;;;;3.38;65.86;94454.13;4175203;28;20514;-69
2023/12/10 04:05:48;;;;;;;34.67;27.33;;;;;;;3.40;66.11;94462.59;4173642;28;20053;-68
2023/12/10 04:07:50;;;;;;;34.72;28.13;;;;;;;3.41;65.79;94450.47;4173245;28;20462;-69
2023/12/10 04:09:52;;;;;;;36.33;27.08;;;;;;;3.47;66.02;94463.75;4176475;28;20107;-68
2023/12/10 04:11:59;;;;;;;32.67;27.20;;;;;;;3.48;65.79;94454.22;4177598;28;20041;-67
2023/12/10 04:14:01;;;;;;;36.38;27.50;;;;;;;3.48;65.75;94457.66;4169886;28;20128;-69
2023/12/10 04:16:03;;;;;;;35.15;26.80;;;;;;;3.52;66.07;94465.97;4159660;28;20080;-68
2023/12/10 04:18:05;;;;;;;39.67;26.50;;;;;;;3.54;66.00;94463.28;4176131;28;20066;-69
2023/12/10 04:20:08;;;;;;;34.38;25.75;;;;;;;3.54;65.65;94466.69;4175716;28;20127;-68
2023/12/10 04:22:10;;;;;;;35.83;27.13;;;;;;;3.50;65.94;94460.09;4165787;28;20399;-70
2023/12/10 04:24:12;;;;;;;34.00;26.33;;;;;;;3.45;65.45;94468.22;4167089;28;20049;-69
2023/12/10 04:26:15;;;;;;;34.22;27.35;;;;;;;3.45;65.99;94468.22;4171092;28;20053;-67
2023/12/10 04:28:17;;;;;;;34.65;27.50;;;;;;;3.56;66.08;94472.56;4177000;28;20508;-66
2023/12/10 04:30:19;;;;;;;34.70;27.80;;;;;;;3.63;65.58;94463.34;4177270;28;20053;-68
2023/12/10 04:32:21;;;;;;;35.05;27.13;;;;;;;3.70;65.23;94461.13;4163659;28;20049;-70
2023/12/10 04:34:23;;;;;;;36.33;28.30;;;;;;;3.65;65.28;94456.28;4171861;28;20046;-67
2023/12/10 04:36:25;;;;;;;37.60;28.85;;;;;;;3.66;65.53;94460.53;4160664;28;20132;-69
2023/12/10 04:38:28;;;;;;;34.97;27.60;;;;;;;3.69;65.47;94460.25;4165892;28;20084;-69
2023/12/10 04:40:30;;;;;;;34.00;27.35;;;;;;;3.64;65.18;94446.06;4164613;28;20155;-69
2023/12/10 04:42:32;;;;;;;36.30;26.92;;;;;;;3.71;65.37;94457.56;4175252;28;20476;-66
2023/12/10 04:44:34;;;;;;;36.78;27.63;;;;;;;3.64;65.12;94461.59;4177117;28;20175;-68
2023/12/10 04:46:36;;;;;;;33.65;27.13;;;;;;;3.61;65.36;94460.06;4176907;28;20053;-66
2023/12/10 04:48:37;;;;;;;37.58;27.38;;;;;;;3.55;65.04;94450.22;4175953;28;20559;-67
2023/12/10 04:50:40;;;;;;;37.50;28.75;;;;;;;3.58;65.31;94455.13;4172111;28;20136;-69
2023/12/10 04:52:42;;;;;;;37.08;27.83;;;;;;;3.64;65.77;94462.41;4177452;28;20500;-69
2023/12/10 04:54:44;;;;;;;37.97;28.50;;;;;;;3.64;65.13;94448.66;4171032;28;20489;-68
2023/12/10 04:56:46;;;;;;;37.97;28.33;;;;;;;3.34;64.90;94462.28;4171334;28;20053;-68
2023/12/10 04:58:48;;;;;;;36.97;28.40;;;;;;;3.10;66.19;94465.00;4169582;28;20042;-69
2023/12/10 05:00:51;;;;;;;40.53;30.92;;;;;;;3.18;67.24;94462.63;4170095;28;20520;-70
2023/12/10 05:02:53;;;;;;;37.13;29.83;;;;;;;3.26;66.66;94466.25;4175541;28;20093;-68
2023/12/10 05:04:55;;;;;;;38.92;30.27;;;;;;;3.35;66.51;94454.34;4169811;28;20311;-68
2023/12/10 05:06:57;;;;;;;39.53;30.25;;;;;;;3.44;66.77;94460.56;4169591;28;20056;-69
2023/12/10 05:08:58;;;;;;;38.35;28.60;;;;;;;3.49;66.18;94463.63;4170691;28;20148;-69
2023/12/10 05:11:00;;;;;;;39.67;28.98;;;;;;;3.58;66.51;94468.06;4168337;28;20658;-71
2023/12/10 05:13:02;;;;;;;40.70;29.58;;;;;;;3.62;65.66;94466.91;4172608;28;20040;-69
2023/12/10 05:15:05;;;;;;;37.03;29.20;;;;;;;3.64;65.33;94464.19;4177951;28;20099;-72
2023/12/10 05:17:07;;;;;;;36.35;29.02;;;;;;;3.64;66.02;94449.47;4176104;28;20079;-70
2023/12/10 05:19:09;;;;;;;35.05;28.13;;;;;;;3.62;65.84;94458.31;4172833;28;20061;-69
2023/12/10 05:21:10;;;;;;;33.00;26.45;;;;;;;3.56;65.72;94459.59;4171131;28;20060;-69
2023/12/10 05:23:13;;;;;;;34.60;26.33;;;;;;;3.56;65.73;94461.38;4176304;28;20049;-66
2023/12/10 05:25:14;;;;;;;36.55;27.48;;;;;;;3.58;65.75;94464.66;4169560;28;20056;-67
2023/12/10 05:27:16;;;;;;;32.92;26.95;;;;;;;3.61;65.77;94467.81;4175853;28;20111;-68
2023/12/10 05:29:18;;;;;;;33.78;27.05;;;;;;;3.55;65.37;94465.75;4176704;28;20063;-70
2023/12/10 05:31:21;;;;;;;36.60;28.90;;;;;;;3.47;66.10;94468.13;4170932;28;20565;-70
2023/12/10 05:33:23;;;;;;;36.10;27.52;;;;;;;3.41;66.12;94463.41;4169317;28;20060;-69
2023/12/10 05:35:25;;;;;;;35.75;28.23;;;;;;;3.39;66.20;94465.31;4168148;28;20045;-69
2023/12/10 05:37:27;;;;;;;40.10;28.77;;;;;;;3.38;66.02;94466.25;4172918;28;20049;-68
2023/12/10 05:39:29;;;;;;;37.00;27.83;;;;;;;3.38;66.20;94463.66;4165101;28;20111;-70
2023/12/10 05:41:31;;;;;;;34.88;27.20;;;;;;;3.31;66.70;94462.50;4171379;28;20496;-70
2023/12/10 05:43:33;;;;;;;35.65;27.33;;;;;;;3.27;66.98;94467.09;4176346;28;20045;-69
2023/12/10 05:45:35;;;;;;;36.83;28.73;;;;;;;3.23;66.97;94466.50;4175680;28;20052;-69
2023/12/10 05:47:37;;;;;;;36.47;27.42;;;;;;;3.28;66.71;94456.59;4170405;28;20582;-70
2023/12/10 05:49:39;;;;;;;36.83;28.58;;;;;;;3.33;66.74;94465.78;4186383;28;20056;-69
2023/12/10 05:51:41;;;;;;;36.90;28.33;;;;;;;3.28;67.12;94451.44;4160393;28;20068;-69
2023/12/10 05:53:43;;;;;;;35.15;27.65;;;;;;;3.28;66.91;94454.03;4173113;28;20462;-70
2023/12/10 05:55:45;;;;;;;38.20;30.02;;;;;;;3.29;66.67;94449.66;4173435;28;20482;-70
2023/12/10 05:57:46;;;;;;;34.25;27.27;;;;;;;3.30;66.96;94450.50;4169499;28;20053;-70
2023/12/10 05:59:49;;;;;;;34.92;26.92;;;;;;;3.30;67.17;94453.09;4175822;28;20092;-72
2023/12/10 06:01:50;;;;;;;34.10;27.13;;;;;;;3.28;67.06;94451.44;4162144;28;20042;-69
2023/12/10 06:03:52;;;;;;;35.58;26.70;;;;;;;3.26;66.82;94455.91;4171837;28;20071;-70
2023/12/10 06:05:54;;;;;;;32.65;25.50;;;;;;;3.31;67.24;94462.50;4176136;28;20530;-70
2023/12/10 06:07:56;;;;;;;32.53;25.20;;;;;;;3.24;67.36;94462.16;4165527;28;20473;-70
2023/12/10 06:09:58;;;;;;;30.77;24.60;;;;;;;3.37;66.91;94459.41;4169146;28;20073;-70
2023/12/10 06:12:01;;;;;;;30.15;24.42;;;;;;;3.41;66.81;94463.41;4179586;28;20369;-68
2023/12/10 06:14:02;;;;;;;33.80;24.88;;;;;;;3.43;66.34;94458.94;4175723;28;20053;-69
2023/12/10 06:16:06;;;;;;;34.95;25.30;;;;;;;3.40;66.90;94465.19;4169613;28;20464;-69
2023/12/10 06:18:07;;;;;;;33.17;25.83;;;;;;;3.41;66.30;94464.22;4178766;28;20469;-69
2023/12/10 06:20:10;;;;;;;28.05;23.90;;;;;;;3.36;66.96;94460.38;4175615;28;20080;-69
2023/12/10 06:22:13;;;;;;;29.85;24.27;;;;;;;3.37;67.13;94462.81;4173320;28;20085;-69
2023/12/10 06:24:14;;;;;;;30.45;23.92;;;;;;;3.25;67.36;94467.22;4173048;28;20430;-69
2023/12/10 06:26:16;;;;;;;28.60;23.63;;;;;;;3.24;67.40;94473.31;4194621;28;20052;-70
2023/12/10 06:28:19;;;;;;;33.55;23.45;;;;;;;3.23;67.42;94474.28;4178012;28;20063;-69
2023/12/10 06:30:21;;;;;;;32.28;24.15;;;;;;;3.24;67.50;94468.16;4178057;28;20041;-71
2023/12/10 06:32:23;;;;;;;30.40;24.67;;;;;;;3.19;66.96;94470.28;4178907;28;20079;-70
2023/12/10 06:34:24;;;;;;;33.38;25.05;;;;;;;3.16;67.36;94462.78;4179062;28;20048;-69
2023/12/10 06:36:27;;;;;;;28.77;23.38;;;;;;;3.17;67.23;94469.56;4178832;28;20492;-69
2023/12/10 06:38:28;;;;;;;34.00;24.63;;;;;;;3.12;67.16;94463.94;4179655;28;20543;-69
2023/12/10 06:40:30;;;;;;;29.88;23.83;;;;;;;3.20;67.10;94478.88;4178280;28;20186;-70
2023/12/10 06:42:33;;;;;;;30.48;24.30;;;;;;;3.21;67.08;94468.41;4178854;28;20529;-70
2023/12/10 06:44:36;;;;;;;31.42;25.63;;;;;;;2.88;67.87;94482.16;4178686;28;20053;-68
2023/12/10 06:46:37;;;;;;;31.85;25.45;;;;;;;2.63;68.79;94484.06;4178630;28;20077;-70
2023/12/10 06:48:39;;;;;;;35.30;27.33;;;;;;;2.35;69.62;94480.13;4177765;28;20064;-70
2023/12/10 06:50:41;;;;;;;34.60;27.77;;;;;;;2.29;70.08;94495.28;4179343;28;20136;-69
2023/12/10 06:52:43;;;;;;;33.78;26.65;;;;;;;2.42;70.64;94502.00;4179722;28;20052;-71
2023/12/10 06:54:45;;;;;;;32.60;26.38;;;;;;;2.42;70.00;94507.16;4176871;28;20045;-70
2023/12/10 06:56:47;;;;;;;35.95;27.00;;;;;;;2.54;70.45;94492.50;4174989;28;20300;-68
2023/12/10 06:58:49;;;;;;;34.63;27.33;;;;;;;2.65;69.67;94502.88;4161353;28;20489;-70
2023/12/10 07:00:51;;;;;;;35.95;27.33;;;;;;;2.76;69.67;94494.28;4179754;28;20053;-68
2023/12/10 07:02:53;;;;;;;32.70;26.60;;;;;;;2.82;69.38;94493.84;4175363;28;20140;-70
2023/12/10 07:04:55;;;;;;;36.45;28.60;;;;;;;2.93;68.88;94503.34;4174911;28;20045;-69
2023/12/10 07:06:57;;;;;;;34.20;27.40;;;;;;;3.05;68.58;94499.84;4179609;28;20040;-70
2023/12/10 07:08:59;;;;;;;34.42;27.83;;;;;;;3.06;67.97;94505.84;4178213;28;20345;-72
2023/12/10 07:11:04;;;;;;;33.75;26.30;;;;;;;3.13;68.42;94504.41;4162345;28;20055;-70
2023/12/10 07:13:06;;;;;;;32.45;26.15;;;;;;;3.20;67.90;94497.81;4176638;28;20049;-71
2023/12/10 07:15:08;;;;;;;33.03;26.80;;;;;;;3.35;67.92;94495.78;4178428;28;20049;-70
2023/12/10 07:17:10;;;;;;;31.85;25.08;;;;;;;3.53;67.38;94496.13;4178837;28;20079;-70
2023/12/10 07:19:15;;;;;;;;;;;;;;;3.72;66.34;94502.41;4178490;28;20040;-71
2023/12/10 07:21:18;;;;;;;33.17;26.70;;;;;;;3.86;65.95;94495.19;4177387;28;20001;-70
2023/12/10 07:23:20;;;;;;;30.40;25.98;;;;;;;4.01;66.01;94506.09;4173466;28;20136;-70
2023/12/10 07:25:22;;;;;;;39.47;27.23;;;;;;;4.19;65.28;94495.16;4177537;28;20052;-70
2023/12/10 07:27:24;;;;;;;33.13;26.42;;;;;;;4.36;65.26;94499.78;4177585;28;20475;-69
2023/12/10 07:29:26;;;;;;;33.63;27.10;;;;;;;4.45;64.57;94506.84;4179354;28;20077;-70
2023/12/10 07:31:30;;;;;;;33.47;26.15;;;;;;;4.58;64.27;94495.44;4179529;28;20476;-69
2023/12/10 07:33:32;;;;;;;32.30;25.30;;;;;;;4.50;63.38;94498.69;4177981;28;20407;-69
2023/12/10 07:35:34;;;;;;;30.60;24.35;;;;;;;4.45;63.87;94490.44;4178510;28;20041;-70
2023/12/10 07:37:35;;;;;;;33.90;26.67;;;;;;;4.42;64.05;94496.69;4168893;28;20057;-69
2023/12/10 07:39:37;;;;;;;33.40;24.50;;;;;;;4.48;63.75;94498.78;4164299;28;20556;-70
2023/12/10 07:41:39;;;;;;;31.55;26.15;;;;;;;4.49;64.23;94500.44;4160933;28;20061;-69
2023/12/10 07:43:41;;;;;;;30.90;24.48;;;;;;;4.59;64.10;94497.91;4174475;28;20088;-70
2023/12/10 07:45:43;;;;;;;32.55;26.02;;;;;;;4.59;63.72;94497.91;4167010;28;20037;-71
2023/12/10 07:47:45;;;;;;;38.33;25.85;;;;;;;4.65;63.71;94496.59;4178375;28;20531;-72
2023/12/10 07:49:47;;;;;;;37.00;28.75;;;;;;;4.62;64.03;94502.00;4160582;28;20210;-70
2023/12/10 07:51:49;;;;;;;33.28;26.58;;;;;;;4.55;63.75;94503.47;4177905;28;20446;-70
2023/12/10 07:53:51;;;;;;;35.13;26.27;;;;;;;4.58;63.31;94505.81;4178537;28;20079;-71
2023/12/10 07:55:53;;;;;;;32.85;25.55;;;;;;;4.55;63.72;94509.47;4178095;28;20073;-70
2023/12/10 07:57:55;;;;;;;39.33;27.98;;;;;;;4.54;63.47;94499.22;4176558;28;20139;-71
2023/12/10 07:59:57;;;;;;;33.40;26.25;;;;;;;4.46;63.78;94508.47;4176649;28;20042;-70
2023/12/10 08:01:59;;;;;;;34.60;26.80;;;;;;;4.35;64.29;94508.53;4179311;28;20119;-70
2023/12/10 08:04:01;;;;;;;32.72;26.63;;;;;;;4.30;63.98;94518.44;4176797;28;20049;-71
2023/12/10 08:06:03;;;;;;;33.67;27.35;;;;;;;4.28;64.22;94517.75;4176015;28;20052;-71
2023/12/10 08:08:05;;;;;;;32.97;25.02;;;;;;;4.37;64.72;94524.00;4177181;28;20163;-70
2023/12/10 08:10:07;;;;;;;35.95;27.77;;;;;;;4.50;64.27;94520.25;4172559;28;20049;-69
2023/12/10 08:12:09;;;;;;;34.45;27.60;;;;;;;4.56;63.24;94518.09;4161892;28;20467;-70
2023/12/10 08:14:11;;;;;;;39.88;27.73;;;;;;;4.23;63.94;94522.50;4162567;28;20076;-69
2023/12/10 08:16:14;;;;;;;35.28;27.77;;;;;;;3.99;64.74;94526.13;4176523;28;20463;-70
2023/12/10 08:18:16;;;;;;;36.65;27.52;;;;;;;3.81;65.32;94525.03;4176983;28;20063;-70
2023/12/10 08:20:18;;;;;;;36.15;28.23;;;;;;;3.15;66.90;94514.66;4158017;28;20494;-70
2023/12/10 08:22:20;;;;;;;35.88;27.90;;;;;;;2.79;68.69;94516.50;4167415;28;20164;-70
2023/12/10 08:24:23;;;;;;;37.83;28.10;;;;;;;2.79;69.61;94519.91;4172597;28;20131;-71
2023/12/10 08:26:25;;;;;;;37.17;29.50;;;;;;;2.62;69.78;94523.81;4167996;28;20067;-70
2023/12/10 08:28:27;;;;;;;36.80;28.75;;;;;;;2.65;69.59;94535.69;4166978;28;20052;-72
2023/12/10 08:30:29;;;;;;;40.03;29.65;;;;;;;2.48;70.07;94526.59;4177409;28;20045;-69
2023/12/10 08:32:31;;;;;;;39.15;30.02;;;;;;;2.46;70.85;94521.53;4174978;28;20060;-70
2023/12/10 08:34:34;;;;;;;35.80;28.03;;;;;;;2.56;70.34;94515.66;4167486;28;20485;-71
2023/12/10 08:36:37;;;;;;;35.45;27.40;;;;;;;2.82;70.51;94509.34;4176185;28;20081;-70
2023/12/10 08:38:40;;;;;;;38.33;28.60;;;;;;;3.05;69.66;94499.84;4178565;28;20087;-70
2023/12/10 08:40:42;;;;;;;37.42;28.45;;;;;;;3.32;69.14;94496.03;4169410;28;20048;-70
2023/12/10 08:42:45;;;;;;;40.53;27.27;;;;;;;3.42;68.23;94490.94;4159435;28;20053;-71
2023/12/10 08:44:47;;;;;;;42.40;30.67;;;;;;;3.49;67.81;94482.59;4178503;28;20049;-70
2023/12/10 08:46:48;;;;;;;41.83;29.92;;;;;;;3.53;67.95;94488.34;4176610;28;20080;-69
2023/12/10 08:48:51;;;;;;;37.92;27.65;;;;;;;3.50;67.11;94491.16;4176300;28;20052;-70
2023/12/10 08:50:53;;;;;;;34.13;27.30;;;;;;;3.53;67.81;94487.50;4178229;28;20132;-71
2023/12/10 08:52:55;;;;;;;34.00;26.52;;;;;;;3.59;67.24;94493.06;4167351;28;20065;-70
2023/12/10 08:54:57;;;;;;;36.25;28.20;;;;;;;3.28;67.06;94479.91;4162726;28;20407;-70
2023/12/10 08:56:59;;;;;;;35.38;26.63;;;;;;;3.21;67.68;94483.94;4177658;28;20571;-70
2023/12/10 08:59:01;;;;;;;35.20;27.55;;;;;;;2.87;68.58;94481.34;4175974;28;20120;-69
2023/12/10 09:01:05;;;;;;;36.08;26.70;;;;;;;2.91;69.04;94488.91;4166558;28;20045;-70
2023/12/10 09:03:07;;;;;;;38.63;28.55;;;;;;;3.08;69.04;94483.25;4175086;28;20152;-70
2023/12/10 09:05:09;;;;;;;38.45;29.20;;;;;;;3.22;68.58;94482.97;4174850;28;20057;-70
2023/12/10 09:07:11;;;;;;;37.05;27.60;;;;;;;3.40;68.24;94472.97;4152090;28;20108;-72
2023/12/10 09:09:13;;;;;;;39.38;29.00;;;;;;;3.55;67.44;94472.66;4174283;28;20404;-71
2023/12/10 09:11:15;;;;;;;36.25;28.80;;;;;;;3.60;67.00;94467.97;4173981;28;20052;-70
2023/12/10 09:13:17;;;;;;;33.05;26.48;;;;;;;3.73;66.63;94463.44;4161312;28;20046;-71
2023/12/10 09:15:18;;;;;;;35.33;27.65;;;;;;;3.82;66.73;94456.69;4171872;28;20049;-70
2023/12/10 09:17:21;;;;;;;37.03;26.90;;;;;;;3.96;65.72;94458.16;4176625;28;20084;-71
2023/12/10 09:19:25;;;;;;;33.22;26.88;;;;;;;3.96;65.72;94456.41;4178998;28;20476;-71
2023/12/10 09:21:27;;;;;;;36.05;27.05;;;;;;;4.08;65.72;94465.75;4171366;28;20162;-70
2023/12/10 09:23:29;;;;;;;35.92;26.38;;;;;;;4.20;65.63;94452.75;4175819;28;20056;-70
2023/12/10 09:25:31;;;;;;;34.22;26.23;;;;;;;4.35;64.51;94459.25;4174816;28;20451;-70
2023/12/10 09:27:33;;;;;;;33.58;26.75;;;;;;;4.43;64.63;94445.66;4175018;28;20060;-70
2023/12/10 09:29:38;;;;;;;33.13;26.75;;;;;;;4.51;64.59;94451.03;4177618;28;20053;-70